M/T Azra S — TCPN3 — position and weather

sailwx.info

Track history (hours):
 
Tides and Currents Weather Stations Pressure Air Temp Water Temp Dewpoint Dewpoint Depression Visibility Wind Speed Wind Dir Waves Ship Positions

M/T Azra S

Last reported at 2018-Jun-23 18:19 UTC. Time now 2018-Jun-23 21:30 UTC.
Position N 32°50' E 035°01'.

Length 105 m; draft 6 m.

Type: Ship (hazmat cat C). MMSI: 271000898.

Date/timePositionNaut miles runAvg speedWind from/ knotsBaromVisibWave heightAir tempDewpointWater temp
2018-Jun-23 18:19N 32°50' E 035°01'1 1.2
2018-Jun-23 17:32N 32°51' E 035°00'1 3.4
2018-Jun-23 17:21N 32°52' E 035°00'2 2.8
2018-Jun-23 16:45N 32°53' E 035°01'0 0.0
2018-Jun-23 11:04N 32°53' E 035°01'0 0.0
2018-Jun-23 10:52N 32°53' E 035°01'0 0.0
2018-Jun-23 07:58N 32°53' E 035°01'0 0.0
2018-Jun-23 07:25N 32°53' E 035°01'0 0.0
2018-Jun-23 06:55N 32°53' E 035°01'0 0.0
2018-Jun-23 03:59N 32°53' E 035°01'4 8.2
2018-Jun-23 03:28N 32°54' E 034°56'510.6
2018-Jun-23 03:00N 32°56' E 034°50'  
2018-Jun-19 13:20N 41°12' E 029°07'7 1.9
2018-Jun-19 09:50N 41°16' E 028°60'0 0.0
2018-Jun-19 09:29N 41°16' E 028°60'28 3.9
2018-Jun-19 02:12N 41°45' E 029°04'211.0
2018-Jun-19 02:01N 41°47' E 029°04'611.2
2018-Jun-19 01:30N 41°52' E 029°03'611.4
2018-Jun-19 01:00N 41°58' E 029°03'3111.4
2018-Jun-18 22:18N 42°29' E 028°59'311.3
2018-Jun-18 22:01N 42°32' E 028°59'611.2
2018-Jun-18 21:30N 42°38' E 028°58'611.3
2018-Jun-18 21:01N 42°43' E 028°57'611.4
2018-Jun-18 20:31N 42°49' E 028°57'611.5
2018-Jun-18 20:00N 42°55' E 028°56'811.4
2018-Jun-18 19:17N 43°03' E 028°55'311.2
2018-Jun-18 19:00N 43°06' E 028°55'511.0
2018-Jun-18 18:31N 43°11' E 028°54'510.8
2018-Jun-18 18:01N 43°17' E 028°53'610.8
2018-Jun-18 17:30N 43°22' E 028°53'510.9
2018-Jun-18 17:01N 43°28' E 028°52'511.0
2018-Jun-18 16:31N 43°33' E 028°51'610.9
2018-Jun-18 16:00N 43°39' E 028°51'510.7
2018-Jun-18 15:30N 43°44' E 028°50'510.8
2018-Jun-18 15:00N 43°49' E 028°49'610.9
2018-Jun-18 14:30N 43°55' E 028°49'510.8
2018-Jun-18 14:00N 43°60' E 028°47'510.6
2018-Jun-18 13:30N 44°04' E 028°43'5 9.4
2018-Jun-18 13:00N 44°08' E 028°40'1 1.3
2018-Jun-18 12:31N 44°09' E 028°40'0 0.0
2018-Jun-18 12:00N 44°09' E 028°40'0 0.0
2018-Jun-18 11:24N 44°09' E 028°40'0 0.0
2018-Jun-18 11:00N 44°09' E 028°40'0 0.0
2018-Jun-18 10:30N 44°09' E 028°40'0 0.0
2018-Jun-18 10:00N 44°09' E 028°40'0 0.0
2018-Jun-18 09:30N 44°09' E 028°40'0 0.0
2018-Jun-18 09:00N 44°09' E 028°40'0 0.0
2018-Jun-18 08:30N 44°09' E 028°40'0 0.0
2018-Jun-18 08:00N 44°09' E 028°40'0 0.0
2018-Jun-18 07:30N 44°09' E 028°40'0 0.0
2018-Jun-18 07:00N 44°09' E 028°40'0 0.0
2018-Jun-18 06:30N 44°09' E 028°40'0 0.0
2018-Jun-18 06:00N 44°09' E 028°40'0 0.0
2018-Jun-18 05:30N 44°09' E 028°40'0 0.0
2018-Jun-18 05:00N 44°09' E 028°40'0 0.0
2018-Jun-18 04:30N 44°09' E 028°40'0 0.0
2018-Jun-18 04:00N 44°09' E 028°40'0 0.0
2018-Jun-18 03:30N 44°09' E 028°40'0 0.0
2018-Jun-18 03:00N 44°09' E 028°40'0 0.0
2018-Jun-18 02:30N 44°09' E 028°40'0 0.0
2018-Jun-18 02:00N 44°09' E 028°40'0 0.0
2018-Jun-18 01:30N 44°09' E 028°40'0 0.0
2018-Jun-18 01:00N 44°09' E 028°40'0 0.0
2018-Jun-18 00:30N 44°09' E 028°40'0 0.0
2018-Jun-18 00:00N 44°09' E 028°40'0 0.0
2018-Jun-17 23:30N 44°09' E 028°40'0 0.0
2018-Jun-17 23:00N 44°09' E 028°40'0 0.0
2018-Jun-17 22:30N 44°09' E 028°40'0 0.0
2018-Jun-17 22:00N 44°09' E 028°40'0 0.0
2018-Jun-17 21:30N 44°09' E 028°40'0 0.0
2018-Jun-17 21:00N 44°09' E 028°40'0 0.0
2018-Jun-17 20:30N 44°09' E 028°40'0 0.0
2018-Jun-17 20:00N 44°09' E 028°40'0 0.0
2018-Jun-17 19:30N 44°09' E 028°40'0 0.0
2018-Jun-17 19:00N 44°09' E 028°40'0 0.0
2018-Jun-17 18:30N 44°09' E 028°40'0 0.0
2018-Jun-17 18:00N 44°09' E 028°40'0 0.0
2018-Jun-17 17:30N 44°09' E 028°40'0 0.0
2018-Jun-17 17:00N 44°09' E 028°40'0 0.0
2018-Jun-17 16:30N 44°09' E 028°40'0 0.0
2018-Jun-17 16:00N 44°09' E 028°40'0 0.0
2018-Jun-17 15:27N 44°09' E 028°40'0 0.0
2018-Jun-17 15:00N 44°09' E 028°40'0 0.0
2018-Jun-17 14:30N 44°09' E 028°40'0 0.0
2018-Jun-17 14:00N 44°09' E 028°40'0 0.0
2018-Jun-17 13:30N 44°09' E 028°40'0 0.0
2018-Jun-17 13:00N 44°09' E 028°40'0 0.0
2018-Jun-17 12:30N 44°09' E 028°40'0 0.0
2018-Jun-17 12:00N 44°09' E 028°40'0 0.0
2018-Jun-17 11:30N 44°09' E 028°40'0 0.0
2018-Jun-17 11:00N 44°09' E 028°40'0 0.0
2018-Jun-17 10:30N 44°09' E 028°40'0 0.0
2018-Jun-17 10:00N 44°09' E 028°40'0 0.0
2018-Jun-17 09:30N 44°09' E 028°40'0 0.0
2018-Jun-17 08:57N 44°09' E 028°40'0 0.0
2018-Jun-17 08:30N 44°09' E 028°40'0 0.0
2018-Jun-17 08:00N 44°09' E 028°40'0 0.0
2018-Jun-17 07:30N 44°09' E 028°40'0 0.0
2018-Jun-17 07:00N 44°09' E 028°40'0 0.0
2018-Jun-17 06:30N 44°09' E 028°40'0 0.0
2018-Jun-17 06:00N 44°09' E 028°40'0 0.0
2018-Jun-17 05:30N 44°09' E 028°40'0 0.0
2018-Jun-17 05:00N 44°09' E 028°40'0 0.0
2018-Jun-17 04:30N 44°09' E 028°40'0 0.0
2018-Jun-17 04:00N 44°09' E 028°40'0 0.0
2018-Jun-17 03:30N 44°09' E 028°40'0 0.0
2018-Jun-17 03:00N 44°09' E 028°40'0 0.8
2018-Jun-17 02:30N 44°09' E 028°40'3 5.4
2018-Jun-17 02:00N 44°06' E 028°42'5 9.3
2018-Jun-17 01:30N 44°03' E 028°46'510.2
2018-Jun-17 01:00N 43°58' E 028°50'5 9.8
2018-Jun-17 00:30N 43°54' E 028°50'5 9.9
2018-Jun-17 00:00N 43°49' E 028°51'5 9.9
2018-Jun-16 23:30N 43°44' E 028°52'5 9.8
2018-Jun-16 23:00N 43°39' E 028°53'5 9.9
2018-Jun-16 22:30N 43°34' E 028°53'510.1
2018-Jun-16 22:00N 43°29' E 028°54'510.1
2018-Jun-16 21:30N 43°24' E 028°55'510.1
2018-Jun-16 21:00N 43°19' E 028°55'610.1
2018-Jun-16 20:22N 43°12' E 028°56'7410.3
2018-Jun-16 13:11N 41°59' E 029°07'210.3
2018-Jun-16 12:59N 41°57' E 029°08'1110.2
2018-Jun-16 11:54N 41°46' E 029°09'510.1
2018-Jun-16 11:27N 41°41' E 029°10'  
2018-Jun-13 21:41N 40°44' E 029°20'2 8.2
2018-Jun-13 21:25N 40°44' E 029°18'6 9.7
2018-Jun-13 20:48N 40°46' E 029°10'510.2
2018-Jun-13 20:21N 40°48' E 029°05'411.0
2018-Jun-13 20:00N 40°50' E 029°00'510.2
2018-Jun-13 19:30N 40°54' E 028°57'610.9
2018-Jun-13 18:59N 40°60' E 028°60'711.4
2018-Jun-13 18:23N 41°06' E 029°04'  
Track history (hours):
 
Tides and Currents Weather Stations Pressure Air Temp Water Temp Dewpoint Dewpoint Depression Visibility Wind Speed Wind Dir Waves Ship Positions

M/T Azra S

Last reported at 2018-Jun-23 18:19 UTC. Time now 2018-Jun-23 21:30 UTC.
Position N 32°50' E 035°01'.

Length 105 m; draft 6 m.

Type: Ship (hazmat cat C). MMSI: 271000898.

Date/timePositionNaut miles runAvg speedWind from/ knotsBaromVisibWave heightAir tempDewpointWater temp
2018-Jun-23 18:19N 32°50' E 035°01'1 1.2
2018-Jun-23 17:32N 32°51' E 035°00'1 3.4
2018-Jun-23 17:21N 32°52' E 035°00'2 2.8
2018-Jun-23 16:45N 32°53' E 035°01'0 0.0
2018-Jun-23 11:04N 32°53' E 035°01'0 0.0
2018-Jun-23 10:52N 32°53' E 035°01'0 0.0
2018-Jun-23 07:58N 32°53' E 035°01'0 0.0
2018-Jun-23 07:25N 32°53' E 035°01'0 0.0
2018-Jun-23 06:55N 32°53' E 035°01'0 0.0
2018-Jun-23 03:59N 32°53' E 035°01'4 8.2
2018-Jun-23 03:28N 32°54' E 034°56'510.6
2018-Jun-23 03:00N 32°56' E 034°50'  
2018-Jun-19 13:20N 41°12' E 029°07'7 1.9
2018-Jun-19 09:50N 41°16' E 028°60'0 0.0
2018-Jun-19 09:29N 41°16' E 028°60'28 3.9
2018-Jun-19 02:12N 41°45' E 029°04'211.0
2018-Jun-19 02:01N 41°47' E 029°04'611.2
2018-Jun-19 01:30N 41°52' E 029°03'611.4
2018-Jun-19 01:00N 41°58' E 029°03'3111.4
2018-Jun-18 22:18N 42°29' E 028°59'311.3
2018-Jun-18 22:01N 42°32' E 028°59'611.2
2018-Jun-18 21:30N 42°38' E 028°58'611.3
2018-Jun-18 21:01N 42°43' E 028°57'611.4
2018-Jun-18 20:31N 42°49' E 028°57'611.5
2018-Jun-18 20:00N 42°55' E 028°56'811.4
2018-Jun-18 19:17N 43°03' E 028°55'311.2
2018-Jun-18 19:00N 43°06' E 028°55'511.0
2018-Jun-18 18:31N 43°11' E 028°54'510.8
2018-Jun-18 18:01N 43°17' E 028°53'610.8
2018-Jun-18 17:30N 43°22' E 028°53'510.9
2018-Jun-18 17:01N 43°28' E 028°52'511.0
2018-Jun-18 16:31N 43°33' E 028°51'610.9
2018-Jun-18 16:00N 43°39' E 028°51'510.7
2018-Jun-18 15:30N 43°44' E 028°50'510.8
2018-Jun-18 15:00N 43°49' E 028°49'610.9
2018-Jun-18 14:30N 43°55' E 028°49'510.8
2018-Jun-18 14:00N 43°60' E 028°47'510.6
2018-Jun-18 13:30N 44°04' E 028°43'5 9.4
2018-Jun-18 13:00N 44°08' E 028°40'1 1.3
2018-Jun-18 12:31N 44°09' E 028°40'0 0.0
2018-Jun-18 12:00N 44°09' E 028°40'0 0.0
2018-Jun-18 11:24N 44°09' E 028°40'0 0.0
2018-Jun-18 11:00N 44°09' E 028°40'0 0.0
2018-Jun-18 10:30N 44°09' E 028°40'0 0.0
2018-Jun-18 10:00N 44°09' E 028°40'0 0.0
2018-Jun-18 09:30N 44°09' E 028°40'0 0.0
2018-Jun-18 09:00N 44°09' E 028°40'0 0.0
2018-Jun-18 08:30N 44°09' E 028°40'0 0.0
2018-Jun-18 08:00N 44°09' E 028°40'0 0.0
2018-Jun-18 07:30N 44°09' E 028°40'0 0.0
2018-Jun-18 07:00N 44°09' E 028°40'0 0.0
2018-Jun-18 06:30N 44°09' E 028°40'0 0.0
2018-Jun-18 06:00N 44°09' E 028°40'0 0.0
2018-Jun-18 05:30N 44°09' E 028°40'0 0.0
2018-Jun-18 05:00N 44°09' E 028°40'0 0.0
2018-Jun-18 04:30N 44°09' E 028°40'0 0.0
2018-Jun-18 04:00N 44°09' E 028°40'0 0.0
2018-Jun-18 03:30N 44°09' E 028°40'0 0.0
2018-Jun-18 03:00N 44°09' E 028°40'0 0.0
2018-Jun-18 02:30N 44°09' E 028°40'0 0.0
2018-Jun-18 02:00N 44°09' E 028°40'0 0.0
2018-Jun-18 01:30N 44°09' E 028°40'0 0.0
2018-Jun-18 01:00N 44°09' E 028°40'0 0.0
2018-Jun-18 00:30N 44°09' E 028°40'0 0.0
2018-Jun-18 00:00N 44°09' E 028°40'0 0.0
2018-Jun-17 23:30N 44°09' E 028°40'0 0.0
2018-Jun-17 23:00N 44°09' E 028°40'0 0.0
2018-Jun-17 22:30N 44°09' E 028°40'0 0.0
2018-Jun-17 22:00N 44°09' E 028°40'0 0.0
2018-Jun-17 21:30N 44°09' E 028°40'0 0.0
2018-Jun-17 21:00N 44°09' E 028°40'0 0.0
2018-Jun-17 20:30N 44°09' E 028°40'0 0.0
2018-Jun-17 20:00N 44°09' E 028°40'0 0.0
2018-Jun-17 19:30N 44°09' E 028°40'0 0.0
2018-Jun-17 19:00N 44°09' E 028°40'0 0.0
2018-Jun-17 18:30N 44°09' E 028°40'0 0.0
2018-Jun-17 18:00N 44°09' E 028°40'0 0.0
2018-Jun-17 17:30N 44°09' E 028°40'0 0.0
2018-Jun-17 17:00N 44°09' E 028°40'0 0.0
2018-Jun-17 16:30N 44°09' E 028°40'0 0.0
2018-Jun-17 16:00N 44°09' E 028°40'0 0.0
2018-Jun-17 15:27N 44°09' E 028°40'0 0.0
2018-Jun-17 15:00N 44°09' E 028°40'0 0.0
2018-Jun-17 14:30N 44°09' E 028°40'0 0.0
2018-Jun-17 14:00N 44°09' E 028°40'0 0.0
2018-Jun-17 13:30N 44°09' E 028°40'0 0.0
2018-Jun-17 13:00N 44°09' E 028°40'0 0.0
2018-Jun-17 12:30N 44°09' E 028°40'0 0.0
2018-Jun-17 12:00N 44°09' E 028°40'0 0.0
2018-Jun-17 11:30N 44°09' E 028°40'0 0.0
2018-Jun-17 11:00N 44°09' E 028°40'0 0.0
2018-Jun-17 10:30N 44°09' E 028°40'0 0.0
2018-Jun-17 10:00N 44°09' E 028°40'0 0.0
2018-Jun-17 09:30N 44°09' E 028°40'0 0.0
2018-Jun-17 08:57N 44°09' E 028°40'0 0.0
2018-Jun-17 08:30N 44°09' E 028°40'0 0.0
2018-Jun-17 08:00N 44°09' E 028°40'0 0.0
2018-Jun-17 07:30N 44°09' E 028°40'0 0.0
2018-Jun-17 07:00N 44°09' E 028°40'0 0.0
2018-Jun-17 06:30N 44°09' E 028°40'0 0.0
2018-Jun-17 06:00N 44°09' E 028°40'0 0.0
2018-Jun-17 05:30N 44°09' E 028°40'0 0.0
2018-Jun-17 05:00N 44°09' E 028°40'0 0.0
2018-Jun-17 04:30N 44°09' E 028°40'0 0.0
2018-Jun-17 04:00N 44°09' E 028°40'0 0.0
2018-Jun-17 03:30N 44°09' E 028°40'0 0.0
2018-Jun-17 03:00N 44°09' E 028°40'0 0.8
2018-Jun-17 02:30N 44°09' E 028°40'3 5.4
2018-Jun-17 02:00N 44°06' E 028°42'5 9.3
2018-Jun-17 01:30N 44°03' E 028°46'510.2
2018-Jun-17 01:00N 43°58' E 028°50'5 9.8
2018-Jun-17 00:30N 43°54' E 028°50'5 9.9
2018-Jun-17 00:00N 43°49' E 028°51'5 9.9
2018-Jun-16 23:30N 43°44' E 028°52'5 9.8
2018-Jun-16 23:00N 43°39' E 028°53'5 9.9
2018-Jun-16 22:30N 43°34' E 028°53'510.1
2018-Jun-16 22:00N 43°29' E 028°54'510.1
2018-Jun-16 21:30N 43°24' E 028°55'510.1
2018-Jun-16 21:00N 43°19' E 028°55'610.1
2018-Jun-16 20:22N 43°12' E 028°56'7410.3
2018-Jun-16 13:11N 41°59' E 029°07'210.3
2018-Jun-16 12:59N 41°57' E 029°08'1110.2
2018-Jun-16 11:54N 41°46' E 029°09'510.1
2018-Jun-16 11:27N 41°41' E 029°10'  
2018-Jun-13 21:41N 40°44' E 029°20'2 8.2
2018-Jun-13 21:25N 40°44' E 029°18'6 9.7
2018-Jun-13 20:48N 40°46' E 029°10'510.2
2018-Jun-13 20:21N 40°48' E 029°05'411.0
2018-Jun-13 20:00N 40°50' E 029°00'510.2
2018-Jun-13 19:30N 40°54' E 028°57'610.9
2018-Jun-13 18:59N 40°60' E 028°60'711.4
2018-Jun-13 18:23N 41°06' E 029°04'  

Dump ship's entire track history